createdAt,value
2024-01-16T00:02:02.375Z,7.56
2024-01-16T00:04:31.005Z,7.58
2024-01-16T00:06:57.774Z,7.61
2024-01-16T00:09:24.749Z,7.64
2024-01-16T00:11:51.501Z,7.65
2024-01-16T00:14:18.566Z,7.68
2024-01-16T00:16:46.279Z,7.70
2024-01-16T00:19:13.465Z,7.71
2024-01-16T00:21:44.144Z,7.73
2024-01-16T00:24:10.796Z,7.72
2024-01-16T00:26:37.617Z,7.70
2024-01-16T00:29:04.414Z,7.65
2024-01-16T00:31:31.084Z,7.61
2024-01-16T00:33:57.750Z,7.55
2024-01-16T00:36:24.507Z,7.50
2024-01-16T00:38:51.220Z,7.44
2024-01-16T00:41:17.987Z,7.39
2024-01-16T00:43:45.153Z,7.32
2024-01-16T00:46:12.312Z,7.28
2024-01-16T00:48:39.157Z,7.27
2024-01-16T00:51:06.082Z,7.25
2024-01-16T00:53:32.750Z,7.18
2024-01-16T00:55:59.501Z,7.15
2024-01-16T00:58:26.342Z,7.15
2024-01-16T01:00:53.014Z,7.12
2024-01-16T01:03:19.574Z,7.09
2024-01-16T01:05:46.153Z,7.05
2024-01-16T01:08:12.869Z,7.05
2024-01-16T01:10:39.533Z,7.05
2024-01-16T01:13:06.091Z,7.06
2024-01-16T01:15:32.665Z,7.05
2024-01-16T01:17:59.600Z,7.06
2024-01-16T01:20:26.924Z,7.04
2024-01-16T01:22:53.601Z,7.01
2024-01-16T01:25:20.272Z,6.97
2024-01-16T01:27:46.854Z,6.98
2024-01-16T01:30:13.975Z,6.96
2024-01-16T01:32:40.947Z,6.95
2024-01-16T01:35:08.377Z,6.95
2024-01-16T01:37:35.072Z,6.91
2024-01-16T01:40:01.680Z,6.87
2024-01-16T01:42:28.281Z,6.85
2024-01-16T01:44:54.930Z,6.83
2024-01-16T01:47:21.695Z,6.80
2024-01-16T01:49:48.918Z,6.76
2024-01-16T01:52:15.756Z,6.74
2024-01-16T01:54:42.425Z,6.70
2024-01-16T01:57:09.749Z,6.67
2024-01-16T01:59:36.663Z,6.64
2024-01-16T02:02:04.289Z,6.63
2024-01-16T02:04:32.479Z,6.63
2024-01-16T02:06:59.363Z,6.62
2024-01-16T02:09:25.954Z,6.60
2024-01-16T02:11:52.712Z,6.56
2024-01-16T02:14:19.500Z,6.56
2024-01-16T02:16:46.612Z,6.51
2024-01-16T02:19:13.331Z,6.49
2024-01-16T02:21:43.308Z,6.47
2024-01-16T02:24:12.199Z,6.47
2024-01-16T02:26:39.009Z,6.47
2024-01-16T02:29:05.898Z,6.47
2024-01-16T02:31:33.469Z,6.47
2024-01-16T02:34:01.013Z,6.43
2024-01-16T02:36:28.756Z,6.44
2024-01-16T02:38:57.773Z,6.43
2024-01-16T02:41:24.493Z,6.42
2024-01-16T02:43:51.062Z,6.44
2024-01-16T02:46:18.216Z,6.46
2024-01-16T02:48:45.017Z,6.44
2024-01-16T02:51:11.913Z,6.46
2024-01-16T02:53:38.554Z,6.45
2024-01-16T02:56:05.448Z,6.43
2024-01-16T02:58:32.167Z,6.44
2024-01-16T03:00:58.773Z,6.46
2024-01-16T03:03:26.030Z,6.48
2024-01-16T03:05:52.798Z,6.46
2024-01-16T03:08:19.449Z,6.47
2024-01-16T03:10:46.297Z,6.45
2024-01-16T03:13:12.970Z,6.46
2024-01-16T03:15:39.574Z,6.47
2024-01-16T03:18:06.384Z,6.46
2024-01-16T03:20:33.820Z,6.46
2024-01-16T03:23:00.511Z,6.44
2024-01-16T03:25:27.420Z,6.41
2024-01-16T03:27:53.993Z,6.39
2024-01-16T03:30:20.767Z,6.36
2024-01-16T03:32:47.510Z,6.38
2024-01-16T03:35:14.248Z,6.42
2024-01-16T03:37:40.875Z,6.43
2024-01-16T03:40:08.616Z,6.45
2024-01-16T03:42:35.254Z,6.47
2024-01-16T03:45:01.814Z,6.43
2024-01-16T03:47:28.554Z,6.40
2024-01-16T03:49:55.202Z,6.39
2024-01-16T03:52:21.759Z,6.37
2024-01-16T03:54:48.346Z,6.37
2024-01-16T03:57:14.897Z,6.34
2024-01-16T03:59:41.641Z,6.35
2024-01-16T04:02:08.313Z,6.34
2024-01-16T04:04:35.713Z,6.32
2024-01-16T04:07:04.165Z,6.30
2024-01-16T04:09:30.883Z,6.26
2024-01-16T04:12:00.593Z,6.21
2024-01-16T04:14:27.308Z,6.18
2024-01-16T04:16:53.935Z,6.18
2024-01-16T04:19:20.864Z,6.18
2024-01-16T04:21:47.690Z,6.20
2024-01-16T04:24:14.298Z,6.22
2024-01-16T04:26:41.171Z,6.23
2024-01-16T04:29:07.847Z,6.24
2024-01-16T04:31:41.002Z,6.24
2024-01-16T04:34:07.711Z,6.24
2024-01-16T04:36:34.347Z,6.22
2024-01-16T04:39:01.419Z,6.19
2024-01-16T04:41:28.276Z,6.17
2024-01-16T04:43:54.982Z,6.15
2024-01-16T04:46:21.674Z,6.14
2024-01-16T04:48:48.438Z,6.11
2024-01-16T04:51:15.083Z,6.07
2024-01-16T04:53:41.992Z,6.06
2024-01-16T04:56:08.724Z,6.06
2024-01-16T04:58:35.410Z,6.06
2024-01-16T05:01:04.510Z,6.05
2024-01-16T05:03:31.151Z,6.05
2024-01-16T05:05:58.250Z,6.07
2024-01-16T05:13:48.194Z,6.06
2024-01-16T05:16:14.848Z,6.06
2024-01-16T05:18:44.687Z,6.08
2024-01-16T05:21:11.346Z,6.09
2024-01-16T05:23:38.484Z,6.07
2024-01-16T05:26:05.345Z,6.07
2024-01-16T05:28:31.975Z,6.07
2024-01-16T05:30:58.716Z,6.05
2024-01-16T05:33:25.457Z,6.03
2024-01-16T05:35:52.329Z,6.02
2024-01-16T05:38:19.224Z,6.00
2024-01-16T05:40:48.069Z,6.01
2024-01-16T05:43:15.710Z,6.02
2024-01-16T05:45:42.536Z,6.00
2024-01-16T05:48:32.296Z,6.01
2024-01-16T05:51:32.997Z,6.00
2024-01-16T05:53:59.527Z,5.98
2024-01-16T05:56:26.210Z,5.97
2024-01-16T05:58:53.440Z,5.99
2024-01-16T06:01:20.177Z,6.01
2024-01-16T06:03:49.873Z,6.01
2024-01-16T06:06:17.452Z,6.00
2024-01-16T06:08:44.336Z,5.96
2024-01-16T06:11:14.209Z,5.88
2024-01-16T06:13:41.351Z,5.78
2024-01-16T06:16:11.430Z,5.68
2024-01-16T06:18:38.197Z,5.64
2024-01-16T06:21:05.154Z,5.63
2024-01-16T06:23:31.877Z,5.60
2024-01-16T06:25:58.584Z,5.56
2024-01-16T06:28:25.185Z,5.55
2024-01-16T06:30:51.918Z,5.54
2024-01-16T06:33:18.671Z,5.56
2024-01-16T06:35:45.328Z,5.57
2024-01-16T06:38:11.993Z,5.58
2024-01-16T06:40:38.837Z,5.65
2024-01-16T06:43:06.755Z,5.74
2024-01-16T06:45:33.376Z,5.78
2024-01-16T06:48:00.254Z,5.83
2024-01-16T06:50:27.006Z,5.85
2024-01-16T06:52:53.656Z,5.84
2024-01-16T06:55:20.257Z,5.89
2024-01-16T06:57:47.828Z,5.95
2024-01-16T07:00:15.768Z,6.00
2024-01-16T07:02:44.565Z,6.04
2024-01-16T07:05:12.714Z,6.06
2024-01-16T07:07:39.522Z,6.08
2024-01-16T07:10:09.334Z,6.09
2024-01-16T07:12:36.030Z,6.11
2024-01-16T07:15:02.677Z,6.16
2024-01-16T07:17:30.265Z,6.19
2024-01-16T07:19:57.118Z,6.22
2024-01-16T07:22:23.779Z,6.23
2024-01-16T07:24:50.409Z,6.25
2024-01-16T07:27:17.072Z,6.29
2024-01-16T07:29:43.689Z,6.32
2024-01-16T07:32:12.173Z,6.29
2024-01-16T07:34:38.824Z,6.23
2024-01-16T07:37:05.379Z,6.18
2024-01-16T07:39:31.961Z,6.17
2024-01-16T07:41:58.564Z,6.19
2024-01-16T07:44:25.227Z,6.22
2024-01-16T07:46:51.812Z,6.26
2024-01-16T07:49:18.514Z,6.33
2024-01-16T07:51:45.090Z,6.40
2024-01-16T07:54:11.780Z,6.46
2024-01-16T07:56:39.082Z,6.55
2024-01-16T07:59:05.904Z,6.71
2024-01-16T08:01:33.604Z,6.88
2024-01-16T08:04:00.505Z,7.01
2024-01-16T08:06:27.659Z,7.11
2024-01-16T08:08:54.483Z,7.17
2024-01-16T08:11:21.367Z,7.22
2024-01-16T08:13:47.996Z,7.30
2024-01-16T08:16:14.634Z,7.35
2024-01-16T08:18:41.480Z,7.40
2024-01-16T08:21:08.774Z,7.48
2024-01-16T08:23:35.673Z,7.58
2024-01-16T08:26:05.201Z,7.66
2024-01-16T08:28:31.758Z,7.73
2024-01-16T08:30:59.969Z,7.78
2024-01-16T08:33:33.739Z,7.84
2024-01-16T08:36:05.496Z,7.85
2024-01-16T08:38:32.351Z,7.88
2024-01-16T08:40:58.963Z,7.92
2024-01-16T08:43:25.581Z,7.96
2024-01-16T08:45:52.141Z,7.99
2024-01-16T08:48:18.939Z,8.03
2024-01-16T08:50:45.730Z,8.11
2024-01-16T08:53:12.372Z,8.14
2024-01-16T08:55:38.946Z,8.18
2024-01-16T08:58:05.627Z,8.23
2024-01-16T09:00:32.358Z,8.27
2024-01-16T09:03:00.465Z,8.35
2024-01-16T09:05:28.303Z,8.41
2024-01-16T09:07:54.969Z,8.46
2024-01-16T09:10:21.643Z,8.50
2024-01-16T09:12:49.889Z,8.57
2024-01-16T09:15:17.976Z,8.69
2024-01-16T09:17:47.254Z,8.75
2024-01-16T09:20:18.421Z,8.78
2024-01-16T09:22:45.005Z,8.78
2024-01-16T09:25:13.668Z,8.77
2024-01-16T09:27:40.360Z,8.74
2024-01-16T09:30:08.623Z,8.77
2024-01-16T09:32:38.498Z,8.84
2024-01-16T09:35:07.900Z,8.91
2024-01-16T09:37:34.553Z,9.00
2024-01-16T09:40:01.310Z,9.08
2024-01-16T09:42:28.647Z,9.14
2024-01-16T09:44:56.524Z,9.23
2024-01-16T09:47:23.591Z,9.33
2024-01-16T09:49:50.342Z,9.47
2024-01-16T09:52:20.193Z,9.60
2024-01-16T09:54:46.858Z,9.68
2024-01-16T09:57:15.333Z,9.74
2024-01-16T09:59:42.242Z,9.79
2024-01-16T10:02:11.836Z,9.84
2024-01-16T10:04:38.629Z,9.89
2024-01-16T10:07:05.531Z,9.97
2024-01-16T10:09:32.310Z,10.04
2024-01-16T10:12:01.152Z,10.13
2024-01-16T10:14:28.009Z,10.23
2024-01-16T10:17:07.245Z,10.34
2024-01-16T10:19:43.341Z,10.46
2024-01-16T10:22:24.461Z,10.57
2024-01-16T10:25:13.590Z,10.65
2024-01-16T10:27:41.292Z,10.77
2024-01-16T10:30:08.657Z,10.89
2024-01-16T10:32:43.123Z,11.01
2024-01-16T10:35:15.008Z,11.08
2024-01-16T10:37:46.829Z,11.08
2024-01-16T10:40:32.159Z,11.08
2024-01-16T10:43:06.669Z,11.07
2024-01-16T10:45:34.259Z,11.08
2024-01-16T10:48:08.972Z,11.17
2024-01-16T10:50:38.462Z,11.28
2024-01-16T10:53:06.201Z,11.38
2024-01-16T10:55:39.764Z,11.49
2024-01-16T10:58:06.525Z,11.61
2024-01-16T11:00:34.554Z,11.75
2024-01-16T11:03:10.552Z,11.85
2024-01-16T11:05:38.637Z,11.95
2024-01-16T11:08:07.120Z,12.04
2024-01-16T11:10:35.222Z,12.12
2024-01-16T11:13:03.219Z,12.19
2024-01-16T11:15:30.015Z,12.25
2024-01-16T11:17:57.718Z,12.35
2024-01-16T11:20:38.780Z,12.44
2024-01-16T11:23:13.097Z,12.52
2024-01-16T11:25:40.692Z,12.57
2024-01-16T11:28:14.837Z,12.63
2024-01-16T11:30:42.243Z,12.66
2024-01-16T11:33:34.889Z,12.69
2024-01-16T11:36:02.256Z,12.73
2024-01-16T11:38:30.592Z,12.75
2024-01-16T11:40:57.613Z,12.78
2024-01-16T11:43:33.682Z,12.82
2024-01-16T11:46:05.370Z,12.88
2024-01-16T11:48:32.064Z,12.92
2024-01-16T11:50:58.816Z,12.96
2024-01-16T11:53:31.685Z,12.96
2024-01-16T11:56:34.309Z,12.99
2024-01-16T11:59:29.019Z,13.03
2024-01-16T12:01:59.361Z,13.07
2024-01-16T12:04:26.613Z,13.10
2024-01-16T12:07:00.985Z,13.14
2024-01-16T12:09:28.832Z,13.17
2024-01-16T12:12:00.358Z,13.21
2024-01-16T12:14:27.203Z,13.24
2024-01-16T12:16:54.061Z,13.25
2024-01-16T12:19:20.893Z,13.27
2024-01-16T12:21:47.548Z,13.27
2024-01-16T12:24:18.414Z,13.28
2024-01-16T12:26:45.497Z,13.27
2024-01-16T12:29:12.247Z,13.24
2024-01-16T12:31:38.896Z,13.20
2024-01-16T12:34:11.495Z,13.15
2024-01-16T12:36:39.252Z,13.11
2024-01-16T12:39:06.670Z,13.06
2024-01-16T12:41:43.004Z,13.00
2024-01-16T12:44:15.903Z,12.91
2024-01-16T12:47:03.901Z,12.82
2024-01-16T12:49:31.058Z,12.71
2024-01-16T12:52:21.801Z,12.60
2024-01-16T12:54:50.297Z,12.50
2024-01-16T12:57:23.154Z,12.40
2024-01-16T12:59:51.312Z,12.34
2024-01-16T13:02:27.471Z,12.29
2024-01-16T13:05:05.127Z,12.22
2024-01-16T13:07:34.919Z,12.18
2024-01-16T13:10:17.370Z,12.16
2024-01-16T13:12:44.399Z,12.11
2024-01-16T13:15:18.004Z,12.07
2024-01-16T13:17:47.033Z,12.05
2024-01-16T13:20:24.667Z,12.00
2024-01-16T13:22:53.077Z,11.97
2024-01-16T13:25:19.799Z,11.95
2024-01-16T13:27:47.000Z,11.91
2024-01-16T13:30:19.681Z,11.85
2024-01-16T13:32:48.900Z,11.79
2024-01-16T13:35:15.632Z,11.76
2024-01-16T13:37:42.640Z,11.73
2024-01-16T13:40:16.502Z,11.73
2024-01-16T13:42:45.309Z,11.70
2024-01-16T13:45:14.654Z,11.63
2024-01-16T13:47:42.229Z,11.54
2024-01-16T13:50:09.442Z,11.44
2024-01-16T13:52:36.922Z,11.34
2024-01-16T13:55:08.094Z,11.23
2024-01-16T13:57:38.265Z,11.12
2024-01-16T14:00:06.525Z,11.03
2024-01-16T14:02:33.311Z,10.95
2024-01-16T14:05:00.273Z,10.93
2024-01-16T14:07:27.174Z,10.91
2024-01-16T14:09:53.826Z,10.90
2024-01-16T14:12:20.463Z,10.87
2024-01-16T14:14:48.731Z,10.85
2024-01-16T14:17:15.486Z,10.83
2024-01-16T14:19:42.159Z,10.80
2024-01-16T14:22:08.753Z,10.76
2024-01-16T14:24:44.536Z,10.72
2024-01-16T14:27:11.822Z,10.71
2024-01-16T14:29:41.127Z,10.71
2024-01-16T14:32:08.092Z,10.69
2024-01-16T14:34:34.891Z,10.68
2024-01-16T14:37:01.759Z,10.62
2024-01-16T14:39:32.075Z,10.58
2024-01-16T14:42:00.028Z,10.53
2024-01-16T14:44:26.741Z,10.53
2024-01-16T14:46:55.412Z,10.54
2024-01-16T14:49:25.246Z,10.57
2024-01-16T14:51:52.123Z,10.59
2024-01-16T14:54:19.324Z,10.57
2024-01-16T14:56:49.955Z,10.55
2024-01-16T14:59:17.059Z,10.52
2024-01-16T15:01:45.288Z,10.51
2024-01-16T15:04:15.470Z,10.50
2024-01-16T15:06:42.599Z,10.47
2024-01-16T15:09:13.330Z,10.46
2024-01-16T15:11:41.158Z,10.45
2024-01-16T15:14:08.077Z,10.44
2024-01-16T15:16:34.956Z,10.42
2024-01-16T15:19:03.885Z,10.42
2024-01-16T15:21:30.554Z,10.39
2024-01-16T15:23:57.790Z,10.35
2024-01-16T15:26:26.486Z,10.34
2024-01-16T15:28:53.309Z,10.31
2024-01-16T15:31:22.420Z,10.28
2024-01-16T15:33:49.100Z,10.25
2024-01-16T15:36:15.820Z,10.25
2024-01-16T15:38:43.668Z,10.24
2024-01-16T15:41:10.273Z,10.23
2024-01-16T15:43:38.040Z,10.21
2024-01-16T15:46:07.366Z,10.19
2024-01-16T15:48:35.626Z,10.18
2024-01-16T15:51:02.848Z,10.16
2024-01-16T15:53:30.004Z,10.16
2024-01-16T15:55:56.654Z,10.15
2024-01-16T15:58:23.356Z,10.12
2024-01-16T16:00:49.989Z,10.10
2024-01-16T16:03:16.800Z,10.10
2024-01-16T16:05:43.585Z,10.08
2024-01-16T16:08:11.551Z,10.06
2024-01-16T16:10:38.235Z,10.06
2024-01-16T16:13:05.497Z,10.06
2024-01-16T16:15:32.856Z,10.07
2024-01-16T16:17:59.756Z,10.07
2024-01-16T16:20:27.044Z,10.05
2024-01-16T16:22:54.601Z,10.04
2024-01-16T16:25:21.315Z,10.02
2024-01-16T16:27:48.977Z,9.99
2024-01-16T16:30:15.824Z,9.98
2024-01-16T16:32:42.884Z,9.96
2024-01-16T16:35:10.708Z,9.92
2024-01-16T16:37:37.390Z,9.91
2024-01-16T16:40:06.027Z,9.90
2024-01-16T16:42:33.207Z,9.87
2024-01-16T16:45:00.477Z,9.81
2024-01-16T16:47:27.286Z,9.70
2024-01-16T16:49:53.921Z,9.61
2024-01-16T16:52:20.842Z,9.51
2024-01-16T16:54:49.058Z,9.46
2024-01-16T16:57:18.750Z,9.43
2024-01-16T16:59:46.499Z,9.42
2024-01-16T17:02:16.316Z,9.42
2024-01-16T17:04:43.505Z,9.41
2024-01-16T17:07:13.696Z,9.39
2024-01-16T17:09:42.952Z,9.38
2024-01-16T17:12:09.952Z,9.37
2024-01-16T17:14:44.297Z,9.38
2024-01-16T17:17:12.267Z,9.38
2024-01-16T17:19:39.221Z,9.39
2024-01-16T17:22:09.247Z,9.39
2024-01-16T17:24:39.426Z,9.39
2024-01-16T17:27:09.135Z,9.39
2024-01-16T17:29:36.736Z,9.39
2024-01-16T17:32:06.215Z,9.40
2024-01-16T17:34:32.890Z,9.40
2024-01-16T17:36:59.584Z,9.39
2024-01-16T17:39:27.012Z,9.38
2024-01-16T17:41:53.723Z,9.36
2024-01-16T17:44:20.672Z,9.36
2024-01-16T17:46:47.338Z,9.35
2024-01-16T17:49:17.343Z,9.38
2024-01-16T17:51:47.986Z,9.39
2024-01-16T17:54:17.885Z,9.42
2024-01-16T17:56:50.510Z,9.43
2024-01-16T17:59:19.575Z,9.42
2024-01-16T18:01:47.817Z,9.43
2024-01-16T18:04:19.081Z,9.45
2024-01-16T18:06:51.892Z,9.45
2024-01-16T18:09:20.520Z,9.47
2024-01-16T18:11:54.408Z,9.50
2024-01-16T18:14:22.165Z,9.52
2024-01-16T18:16:52.726Z,9.50
2024-01-16T18:19:20.815Z,9.50
2024-01-16T18:21:47.505Z,9.49
2024-01-16T18:24:17.076Z,9.49
2024-01-16T18:26:51.660Z,9.48
2024-01-16T18:29:21.779Z,9.47
2024-01-16T18:31:51.092Z,9.48
2024-01-16T18:34:21.731Z,9.48
2024-01-16T18:36:49.927Z,9.47
2024-01-16T18:39:21.602Z,9.48
2024-01-16T18:41:49.419Z,9.47
2024-01-16T18:44:19.186Z,9.47
2024-01-16T18:46:47.855Z,9.47
2024-01-16T18:49:14.671Z,9.47
2024-01-16T18:51:43.868Z,9.46
2024-01-16T18:54:10.771Z,9.45
2024-01-16T18:56:41.561Z,9.44
2024-01-16T18:59:10.570Z,9.45
2024-01-16T19:01:44.788Z,9.43
2024-01-16T19:04:23.527Z,9.41
2024-01-16T19:06:52.541Z,9.39
2024-01-16T19:09:24.565Z,9.39
2024-01-16T19:11:54.015Z,9.38
2024-01-16T19:14:23.906Z,9.40
2024-01-16T19:16:53.813Z,9.41
2024-01-16T19:19:26.747Z,9.41
2024-01-16T19:21:54.529Z,9.44
2024-01-16T19:24:21.401Z,9.44
2024-01-16T19:26:48.115Z,9.46
2024-01-16T19:29:20.199Z,9.47
2024-01-16T19:31:46.851Z,9.48
2024-01-16T19:34:13.716Z,9.50
2024-01-16T19:36:48.657Z,9.49
2024-01-16T19:39:26.109Z,9.49
2024-01-16T19:41:55.507Z,9.50
2024-01-16T19:44:24.521Z,9.50
2024-01-16T19:46:55.076Z,9.51
2024-01-16T19:49:24.918Z,9.49
2024-01-16T19:51:51.533Z,9.49
2024-01-16T19:54:18.124Z,9.51
2024-01-16T19:56:44.718Z,9.51
2024-01-16T19:59:11.502Z,9.50
2024-01-16T20:01:38.257Z,9.49
2024-01-16T20:04:06.597Z,9.46
2024-01-16T20:06:33.451Z,9.41
2024-01-16T20:09:02.894Z,9.33
2024-01-16T20:11:31.393Z,9.27
2024-01-16T20:14:01.042Z,9.24
2024-01-16T20:16:33.682Z,9.19
2024-01-16T20:19:00.446Z,9.20
2024-01-16T20:21:27.997Z,9.22
2024-01-16T20:23:58.022Z,9.27
2024-01-16T20:26:28.625Z,9.28
2024-01-16T20:28:58.318Z,9.30
2024-01-16T20:31:27.902Z,9.31
2024-01-16T20:33:54.717Z,9.30
2024-01-16T20:36:23.556Z,9.31
2024-01-16T20:38:50.234Z,9.30
2024-01-16T20:41:17.478Z,9.30
2024-01-16T20:43:45.129Z,9.30
2024-01-16T20:46:12.356Z,9.31
2024-01-16T20:48:39.434Z,9.32
2024-01-16T20:51:07.143Z,9.30
2024-01-16T20:53:34.030Z,9.30
2024-01-16T20:56:10.739Z,9.29
2024-01-16T20:58:39.546Z,9.29
2024-01-16T21:01:08.480Z,9.32
2024-01-16T21:03:35.431Z,9.32
2024-01-16T21:06:04.559Z,9.36
2024-01-16T21:08:32.589Z,9.38
2024-01-16T21:11:00.206Z,9.42
2024-01-16T21:13:29.100Z,9.44
2024-01-16T21:15:56.140Z,9.43
2024-01-16T21:18:23.481Z,9.43
2024-01-16T21:20:50.666Z,9.44
2024-01-16T21:23:17.360Z,9.44
2024-01-16T21:25:43.905Z,9.43
2024-01-16T21:28:11.035Z,9.43
2024-01-16T21:30:37.642Z,9.44
2024-01-16T21:33:04.566Z,9.45
2024-01-16T21:35:31.351Z,9.49
2024-01-16T21:37:57.972Z,9.52
2024-01-16T21:40:24.624Z,9.53
2024-01-16T21:42:51.361Z,9.55
2024-01-16T21:45:17.988Z,9.57
2024-01-16T21:47:44.949Z,9.55
2024-01-16T21:52:39.605Z,9.55
2024-01-16T21:55:07.471Z,9.51
2024-01-16T21:57:34.777Z,9.49
2024-01-16T22:00:04.043Z,9.47
2024-01-16T22:02:30.767Z,9.47
2024-01-16T22:04:57.592Z,9.46
2024-01-16T22:07:24.373Z,9.46
2024-01-16T22:09:50.926Z,9.47
2024-01-16T22:12:17.479Z,9.46
2024-01-16T22:14:44.368Z,9.46
2024-01-16T22:17:10.961Z,9.46
2024-01-16T22:19:37.619Z,9.45
2024-01-16T22:22:04.442Z,9.45
2024-01-16T22:24:31.048Z,9.46
2024-01-16T22:26:57.714Z,9.46
2024-01-16T22:29:24.310Z,9.45
2024-01-16T22:31:50.877Z,9.43
2024-01-16T22:34:19.291Z,9.41
2024-01-16T22:36:46.006Z,9.38
2024-01-16T22:39:16.782Z,9.34
2024-01-16T22:41:47.936Z,9.33
2024-01-16T22:44:15.307Z,9.34
2024-01-16T22:46:42.087Z,9.38
2024-01-16T22:49:09.223Z,9.37
2024-01-16T22:51:41.177Z,9.38
2024-01-16T22:54:08.187Z,9.40
2024-01-16T22:56:35.199Z,9.42
2024-01-16T22:59:04.271Z,9.44
2024-01-16T23:01:32.084Z,9.43
2024-01-16T23:03:59.213Z,9.43
2024-01-16T23:06:29.769Z,9.43
2024-01-16T23:08:56.970Z,9.44
2024-01-16T23:11:24.907Z,9.43
2024-01-16T23:13:52.429Z,9.44
2024-01-16T23:16:19.447Z,9.45
2024-01-16T23:18:47.481Z,9.44
2024-01-16T23:21:15.372Z,9.45
2024-01-16T23:23:45.962Z,9.42
2024-01-16T23:26:13.399Z,9.40
2024-01-16T23:28:41.126Z,9.39
2024-01-16T23:31:08.851Z,9.40
2024-01-16T23:33:35.965Z,9.41
2024-01-16T23:36:03.133Z,9.42
2024-01-16T23:38:29.986Z,9.42
2024-01-16T23:40:59.591Z,9.43
2024-01-16T23:43:29.010Z,9.45
2024-01-16T23:45:55.643Z,9.48
2024-01-16T23:48:22.499Z,9.52
2024-01-16T23:50:49.509Z,9.53
2024-01-16T23:53:16.646Z,9.55
2024-01-16T23:55:43.317Z,9.55
2024-01-16T23:58:10.315Z,9.56
